Item Display Status Humidity-temperature Sensor

Elevation Above Sea Level: 3 m

 

Deployed Sensor

  • Serial Number: 60844405
  • NDBC Property Number: 35543
  • Start Date: 1/13/2016 (16:46:04 Z)
  • End Date: 6/23/2017 (15:46:00 Z)
Relative Humidity [%]     6 entries per hour
Showing data from 6/5/2016 (21:00:00 Z) to 6/4/2016 (00:00:01 Z)
Previous Next [ Day | 3-Days | 7-Days ]
First Last
Prev [ Day | 3-Days | 7-Days ] Next
First Last

Start Time:     :
End Time:     :     
Time (in GMT) :00 :50 :40 :30 :20 :10
Previous Next [ Day | 3-Days | 7-Days ]
First Last
Prev [ Day | 3-Days | 7-Days ] Next
First Last


123 => good data
MM => data is determined as missing
-- => data not received/configured
Back to Top Back to Top
6/5/2016 21:00 to 20:10 61.88 -- -- -- -- --
6/5/2016 20:00 to 19:10 64.32 61.86 63.72 64.44 62.98 63.93
6/5/2016 19:00 to 18:10 61.43 -- -- -- -- --
6/5/2016 18:00 to 17:10 -- -- -- -- -- --
6/5/2016 17:00 to 16:10 -- -- -- -- -- --
6/5/2016 16:00 to 15:10 -- -- -- -- -- --
6/5/2016 15:00 to 14:10 -- -- -- -- -- --
6/5/2016 14:00 to 13:10 65.81 63.64 65.12 65.17 66.51 65.43
6/5/2016 13:00 to 12:10 67.02 66.92 66.34 67.37 68.39 67.21
6/5/2016 12:00 to 11:10 67.64 -- -- -- -- --
6/5/2016 11:00 to 10:10 69.66 68.94 69.52 68.82 68.47 68.47
6/5/2016 10:00 to 9:10 69.05 69.42 70.37 71.89 72.70 71.28
6/5/2016 09:00 to 8:10 69.91 68.10 69.09 69.79 70.53 70.04
6/5/2016 08:00 to 7:10 70.04 70.00 69.31 69.85 68.69 68.96
6/5/2016 07:00 to 6:10 68.96 71.11 69.64 68.72 68.72 68.51
6/5/2016 06:00 to 5:10 69.19 68.30 68.18 68.14 69.50 70.63
6/5/2016 05:00 to 4:10 69.36 66.47 67.04 67.04 67.15 68.12
6/5/2016 04:00 to 3:10 67.56 67.81 69.07 68.86 68.03 67.99
6/5/2016 03:00 to 2:10 69.81 69.36 69.03 68.67 68.49 68.72
6/5/2016 02:00 to 1:10 68.96 68.63 68.41 68.70 68.37 70.12
6/5/2016 01:00 to 0:10 69.56 69.48 69.17 70.06 70.30 69.48
6/5/2016 00:00 to 23:10 69.05 69.79 69.64 68.32 67.79 68.70
6/4/2016 23:00 to 22:10 69.29 69.13 69.29 69.83 69.50 69.34
6/4/2016 22:00 to 21:10 69.71 69.05 69.56 69.25 70.10 70.94
6/4/2016 21:00 to 20:10 69.93 70.61 69.21 71.09 70.47 70.49
6/4/2016 20:00 to 19:10 71.34 73.03 71.60 69.56 70.64 68.92
6/4/2016 19:00 to 18:10 69.27 69.07 70.12 69.77 70.10 71.07
6/4/2016 18:00 to 17:10 -- -- -- -- -- --
6/4/2016 17:00 to 16:10 70.74 69.79 71.13 70.59 70.22 70.80
6/4/2016 16:00 to 15:10 70.70 70.53 71.30 71.34 72.45 72.20
6/4/2016 15:00 to 14:10 71.38 72.45 71.89 70.14 70.28 70.02
6/4/2016 14:00 to 13:10 70.97 72.53 70.59 71.11 70.94 70.47
6/4/2016 13:00 to 12:10 73.32 71.89 73.52 74.04 73.61 73.50
6/4/2016 12:00 to 11:10 73.96 73.52 73.17 73.63 73.81 74.45
6/4/2016 11:00 to 10:10 -- -- -- -- -- --
6/4/2016 10:00 to 9:10 73.88 74.12 74.12 74.45 74.33 74.64
6/4/2016 09:00 to 8:10 72.93 73.96 74.23 74.31 75.28 74.41
6/4/2016 08:00 to 7:10 73.90 74.20 73.98 73.55 73.61 74.10
6/4/2016 07:00 to 6:10 74.20 74.45 74.52 74.23 73.94 74.85
6/4/2016 06:00 to 5:10 73.73 73.13 74.21 74.49 74.12 73.67
6/4/2016 05:00 to 4:10 73.15 73.48 74.12 73.52 72.47 73.36
6/4/2016 04:00 to 3:10 73.19 72.82 73.44 71.05 72.12 73.32
6/4/2016 03:00 to 2:10 72.74 73.19 73.44 74.20 73.32 72.97
6/4/2016 02:00 to 1:10 72.26 74.49 73.24 73.81 73.67 74.04
6/4/2016 01:00 to 0:10 74.84 74.23 74.29 73.73 74.02 73.57

 

 

 

Air Temperature [°C]     6 entries per hour
Showing data from 6/1/2016 (09:10:00 Z) to 5/31/2016 (00:00:01 Z)
Previous Next [ Day | 3-Days | 7-Days ]
First Last
Prev [ Day | 3-Days | 7-Days ] Next
First Last

Start Time:     :
End Time:     :     
Time (in GMT) :00 :50 :40 :30 :20 :10
Previous Next [ Day | 3-Days | 7-Days ]
First Last
Prev [ Day | 3-Days | 7-Days ] Next
First Last


123 => good data
MM => data is determined as missing
-- => data not received/configured
Back to Top Back to Top
6/1/2016 10:00 to 9:10 -- -- -- -- -- 24.86
6/1/2016 09:00 to 8:10 24.90 24.85 24.92 24.92 24.93 24.90
6/1/2016 08:00 to 7:10 24.91 24.87 24.92 24.95 24.89 25.04
6/1/2016 07:00 to 6:10 24.93 25.02 25.07 25.08 25.08 25.16
6/1/2016 06:00 to 5:10 24.98 25.14 25.14 25.06 25.15 25.11
6/1/2016 05:00 to 4:10 25.11 25.18 25.20 25.15 25.16 25.12
6/1/2016 04:00 to 3:10 25.14 25.21 25.26 25.21 25.25 25.26
6/1/2016 03:00 to 2:10 25.27 25.29 25.33 25.29 25.29 25.29
6/1/2016 02:00 to 1:10 25.25 25.36 25.34 25.28 25.30 25.30
6/1/2016 01:00 to 0:10 25.28 25.35 25.37 25.36 25.38 25.40
6/1/2016 00:00 to 23:10 25.40 25.43 25.60 25.63 25.78 25.71
5/31/2016 23:00 to 22:10 25.86 25.79 25.75 25.64 25.59 25.61
5/31/2016 22:00 to 21:10 25.57 25.67 25.58 25.66 25.60 25.54
5/31/2016 21:00 to 20:10 25.58 25.59 25.56 25.56 25.53 25.54
5/31/2016 20:00 to 19:10 25.56 25.56 25.55 25.54 25.54 25.59
5/31/2016 19:00 to 18:10 25.57 25.55 25.67 25.74 25.62 25.63
5/31/2016 18:00 to 17:10 25.69 25.72 25.62 25.64 25.68 25.65
5/31/2016 17:00 to 16:10 25.55 25.50 25.51 25.50 25.53 25.51
5/31/2016 16:00 to 15:10 25.56 25.55 25.59 25.60 25.67 25.59
5/31/2016 15:00 to 14:10 25.72 25.50 25.52 25.51 25.47 25.51
5/31/2016 14:00 to 13:10 25.60 25.56 25.55 25.40 25.38 25.34
5/31/2016 13:00 to 12:10 25.22 25.18 25.10 25.06 25.11 25.06
5/31/2016 12:00 to 11:10 25.16 25.17 25.16 25.20 25.19 25.14
5/31/2016 11:00 to 10:10 25.14 25.14 25.23 25.15 25.20 25.13
5/31/2016 10:00 to 9:10 25.15 25.14 25.22 25.16 25.19 25.20
5/31/2016 09:00 to 8:10 25.25 25.29 25.24 25.24 25.27 25.31
5/31/2016 08:00 to 7:10 25.26 25.32 25.30 25.33 25.31 25.38
5/31/2016 07:00 to 6:10 25.37 25.29 25.41 25.32 25.35 25.40
5/31/2016 06:00 to 5:10 25.47 25.40 25.37 25.52 25.52 25.49
5/31/2016 05:00 to 4:10 25.52 25.55 25.47 25.53 25.58 25.70
5/31/2016 04:00 to 3:10 25.64 25.73 25.58 25.66 25.67 25.59
5/31/2016 03:00 to 2:10 25.65 25.65 25.66 25.71 25.75 25.72
5/31/2016 02:00 to 1:10 25.75 25.77 25.75 25.75 25.74 25.78
5/31/2016 01:00 to 0:10 25.79 25.75 25.78 25.82 25.84 25.84